NCAR-RAP Real-Time Weather Data

Output produced by METARs form (17 January 2018  22:27 UTC)
found at http://weather.rap.ucar.edu/surface/
 
Conditions at: KRSW observed 17 January 2018  21:53 UTC
Temperature: 19.4°C (67°F)
Dewpoint: 8.9°C (48°F) [RH = 51%]
Pressure (altimeter): 30.20 inches Hg (1022.8 mb)
[Sea-level pressure: 1022.3 mb]
Winds: from the WNW (300 degrees) at 9 MPH (8 knots; 4.2 m/s)
gusting to 17 MPH (15 knots; 7.8 m/s)
Visibility: 10 or more miles (16+ km)
Ceiling: at least 12,000 feet AGL
Clouds: sky clear below 12,000 feet AGL
Present Weather: automated observation with no human augmentation;
there may or may not be significant weather present at this time
KRSW 172153Z AUTO 30008G15KT 10SM CLR 19/09 A3020 RMK AO2 SLP223 T01940089

Conditions at: KRSW observed 17 January 2018  20:53 UTC
Temperature: 21.1°C (70°F)
Dewpoint: 8.3°C (47°F) [RH = 44%]
Pressure (altimeter): 30.19 inches Hg (1022.4 mb)
[Sea-level pressure: 1022.1 mb]
Winds: from the NW (320 degrees) at 9 MPH (8 knots; 4.2 m/s)
gusting to 18 MPH (16 knots; 8.3 m/s)
Visibility: 10 or more miles (16+ km)
Ceiling: at least 12,000 feet AGL
Clouds: sky clear below 12,000 feet AGL
Present Weather: automated observation with no human augmentation;
there may or may not be significant weather present at this time
KRSW 172053Z AUTO 32008G16KT 10SM CLR 21/08 A3019 RMK AO2 SLP221 T02110083 55013

Conditions at: KRSW observed 17 January 2018  19:53 UTC
Temperature: 21.7°C (71°F)
Dewpoint: 8.9°C (48°F) [RH = 44%]
Pressure (altimeter): 30.18 inches Hg (1022.1 mb)
[Sea-level pressure: 1021.8 mb]
Winds: from the WNW (300 degrees) at 12 MPH (10 knots; 5.2 m/s)
gusting to 18 MPH (16 knots; 8.3 m/s)
Visibility: 10 or more miles (16+ km)
Ceiling: at least 12,000 feet AGL
Clouds: sky clear below 12,000 feet AGL
Present Weather: automated observation with no human augmentation;
there may or may not be significant weather present at this time
KRSW 171953Z AUTO 30010G16KT 10SM CLR 22/09 A3018 RMK AO2 SLP218 T02170089

Conditions at: KRSW observed 17 January 2018  18:53 UTC
Temperature: 21.7°C (71°F)
Dewpoint: 7.2°C (45°F) [RH = 39%]
Pressure (altimeter): 30.19 inches Hg (1022.4 mb)
[Sea-level pressure: 1022.1 mb]
Winds: from the WNW (300 degrees) at 12 MPH (10 knots; 5.2 m/s)
Visibility: 10 or more miles (16+ km)
Ceiling: at least 12,000 feet AGL
Clouds: sky clear below 12,000 feet AGL
Present Weather: no significant weather observed at this time
KRSW 171853Z 30010KT 10SM CLR 22/07 A3019 RMK AO2 SLP221 T02170072

Conditions at: KRSW observed 17 January 2018  17:53 UTC
Temperature: 21.7°C (71°F)
Dewpoint: 8.9°C (48°F) [RH = 44%]
Pressure (altimeter): 30.23 inches Hg (1023.8 mb)
[Sea-level pressure: 1023.3 mb]
Winds: from the NW (310 degrees) at 7 MPH (6 knots; 3.1 m/s)
Visibility: 10 or more miles (16+ km)
Ceiling: at least 12,000 feet AGL
Clouds: sky clear below 12,000 feet AGL
Present Weather: no significant weather observed at this time
KRSW 171753Z 31006KT 10SM CLR 22/09 A3023 RMK AO2 SLP233 T02170089 10222 20111 58017

Conditions at: KRSW observed 17 January 2018  16:53 UTC
Temperature: 21.7°C (71°F)
Dewpoint: 8.9°C (48°F) [RH = 44%]
Pressure (altimeter): 30.25 inches Hg (1024.5 mb)
[Sea-level pressure: 1024.0 mb]
Winds: variable direction winds at 6 MPH (5 knots; 2.6 m/s)
Visibility: 10 or more miles (16+ km)
Ceiling: at least 12,000 feet AGL
Clouds: sky clear below 12,000 feet AGL
Present Weather: no significant weather observed at this time
KRSW 171653Z VRB05KT 10SM CLR 22/09 A3025 RMK AO2 SLP240 T02170089

Conditions at: KRSW observed 17 January 2018  15:53 UTC
Temperature: 19.4°C (67°F)
Dewpoint: 11.7°C (53°F) [RH = 61%]
Pressure (altimeter): 30.26 inches Hg (1024.8 mb)
[Sea-level pressure: 1024.6 mb]
Winds: variable direction winds at 3 MPH (3 knots; 1.6 m/s)
Visibility: 10 or more miles (16+ km)
Ceiling: at least 12,000 feet AGL
Clouds: sky clear below 12,000 feet AGL
Present Weather: no significant weather observed at this time
KRSW 171553Z VRB03KT 10SM CLR 19/12 A3026 RMK AO2 SLP246 T01940117

Conditions at: KRSW observed 17 January 2018  14:53 UTC
Temperature: 15.6°C (60°F)
Dewpoint: 12.2°C (54°F) [RH = 80%]
Pressure (altimeter): 30.28 inches Hg (1025.5 mb)
[Sea-level pressure: 1025.0 mb]
Winds: from the ENE (60 degrees) at 5 MPH (4 knots; 2.1 m/s)
Visibility: 10 or more miles (16+ km)
Ceiling: at least 12,000 feet AGL
Clouds: sky clear below 12,000 feet AGL
Present Weather: no significant weather observed at this time
KRSW 171453Z 06004KT 10SM CLR 16/12 A3028 RMK AO2 SLP250 T01560122 51016

Conditions at: KRSW observed 17 January 2018  13:53 UTC
Temperature: 13.3°C (56°F)
Dewpoint: 12.2°C (54°F) [RH = 93%]
Pressure (altimeter): 30.27 inches Hg (1025.1 mb)
[Sea-level pressure: 1024.8 mb]
Winds: from the N (10 degrees) at 5 MPH (4 knots; 2.1 m/s)
Visibility: 10 or more miles (16+ km)
Ceiling: at least 12,000 feet AGL
Clouds: sky clear below 12,000 feet AGL
Present Weather: no significant weather observed at this time
KRSW 171353Z 01004KT 10SM CLR 13/12 A3027 RMK AO2 SLP248 T01330122

Conditions at: KRSW observed 17 January 2018  12:53 UTC
Temperature: 11.1°C (52°F)
Dewpoint: 11.1°C (52°F) [RH = 100%]
Pressure (altimeter): 30.25 inches Hg (1024.5 mb)
[Sea-level pressure: 1024.0 mb]
Winds: from the NNE (20 degrees) at 3 MPH (3 knots; 1.6 m/s)
Visibility: 10 or more miles (16+ km)
Ceiling: at least 12,000 feet AGL
Clouds: sky clear below 12,000 feet AGL
Present Weather: no significant weather observed at this time
KRSW 171253Z 02003KT 10SM CLR 11/11 A3025 RMK AO2 SLP240 T01110111

Conditions at: KRSW observed 17 January 2018  11:53 UTC
Temperature: 11.1°C (52°F)
Dewpoint: 10.6°C (51°F) [RH = 97%]
Pressure (altimeter): 30.23 inches Hg (1023.8 mb)
[Sea-level pressure: 1023.4 mb]
Winds: from the NNE (30 degrees) at 6 MPH (5 knots; 2.6 m/s)
Visibility: 10 or more miles (16+ km)
Ceiling: at least 12,000 feet AGL
Clouds: sky clear below 12,000 feet AGL
Present Weather: no significant weather observed at this time
KRSW 171153Z 03005KT 10SM CLR 11/11 A3023 RMK AO2 SLP234 T01110106 10139 20100 53005

Conditions at: KRSW observed 17 January 2018  10:53 UTC
Temperature: 10.0°C (50°F)
Dewpoint: 10.0°C (50°F) [RH = 100%]
Pressure (altimeter): 30.22 inches Hg (1023.5 mb)
[Sea-level pressure: 1023.2 mb]
Winds: calm
Visibility: 10 or more miles (16+ km)
Ceiling: at least 12,000 feet AGL
Clouds: sky clear below 12,000 feet AGL
Present Weather: no significant weather observed at this time
KRSW 171053Z 00000KT 10SM CLR 10/10 A3022 RMK AO2 SLP232 T01000100

Conditions at: KRSW observed 17 January 2018  09:53 UTC
Temperature: 11.1°C (52°F)
Dewpoint: 11.1°C (52°F) [RH = 100%]
Pressure (altimeter): 30.22 inches Hg (1023.5 mb)
[Sea-level pressure: 1022.9 mb]
Winds: calm
Visibility: 10 or more miles (16+ km)
Ceiling: at least 12,000 feet AGL
Clouds: sky clear below 12,000 feet AGL
Present Weather:
SOME DATA ABOVE MAY BE INACCURATE!!!
"$" is an indication the sensor requires maintenance
KRSW 170953Z AUTO 00000KT 10SM CLR 11/11 A3022 RMK AO2 SLP229 T01110111 $

Conditions at: KRSW observed 17 January 2018  08:53 UTC
Temperature: 11.1°C (52°F)
Dewpoint: 10.6°C (51°F) [RH = 97%]
Pressure (altimeter): 30.22 inches Hg (1023.5 mb)
[Sea-level pressure: 1022.9 mb]
Winds: from the NNE (20 degrees) at 3 MPH (3 knots; 1.6 m/s)
Visibility: 10 or more miles (16+ km)
Ceiling: at least 12,000 feet AGL
Clouds: sky clear below 12,000 feet AGL
Present Weather:
SOME DATA ABOVE MAY BE INACCURATE!!!
"$" is an indication the sensor requires maintenance
KRSW 170853Z AUTO 02003KT 10SM CLR 11/11 A3022 RMK AO2 SLP229 T01110106 $

Conditions at: KRSW observed 17 January 2018  07:53 UTC
Temperature: 11.7°C (53°F)
Dewpoint: 10.6°C (51°F) [RH = 93%]
Pressure (altimeter): 30.21 inches Hg (1023.1 mb)
[Sea-level pressure: 1022.9 mb]
Winds: from the ENE (60 degrees) at 3 MPH (3 knots; 1.6 m/s)
Visibility: 10 or more miles (16+ km)
Ceiling: at least 12,000 feet AGL
Clouds: sky clear below 12,000 feet AGL
Present Weather:
SOME DATA ABOVE MAY BE INACCURATE!!!
"$" is an indication the sensor requires maintenance
KRSW 170753Z AUTO 06003KT 10SM CLR 12/11 A3021 RMK AO2 SLP229 T01170106 $

Conditions at: KRSW observed 17 January 2018  05:53 UTC
Temperature: 12.8°C (55°F)
Dewpoint: 10.0°C (50°F) [RH = 83%]
Pressure (altimeter): 30.25 inches Hg (1024.5 mb)
[Sea-level pressure: 1024.0 mb]
Winds: from the NE (40 degrees) at 3 MPH (3 knots; 1.6 m/s)
Visibility: 10 or more miles (16+ km)
Ceiling: at least 12,000 feet AGL
Clouds: sky clear below 12,000 feet AGL
Present Weather: no significant weather observed at this time
KRSW 170553Z 04003KT 10SM CLR 13/10 A3025 RMK AO2 SLP240 T01280100 10183 20128 58010

Conditions at: KRSW observed 17 January 2018  04:53 UTC
Temperature: 13.9°C (57°F)
Dewpoint: 10.0°C (50°F) [RH = 77%]
Pressure (altimeter): 30.26 inches Hg (1024.8 mb)
[Sea-level pressure: 1024.6 mb]
Winds: from the ENE (60 degrees) at 5 MPH (4 knots; 2.1 m/s)
Visibility: 10 or more miles (16+ km)
Ceiling: at least 12,000 feet AGL
Clouds: sky clear below 12,000 feet AGL
Present Weather: no significant weather observed at this time
KRSW 170453Z 06004KT 10SM CLR 14/10 A3026 RMK AO2 SLP246 T01390100 402390100

Conditions at: KRSW observed 17 January 2018  03:53 UTC
Temperature: 14.4°C (58°F)
Dewpoint: 10.6°C (51°F) [RH = 78%]
Pressure (altimeter): 30.28 inches Hg (1025.5 mb)
[Sea-level pressure: 1025.0 mb]
Winds: from the NE (50 degrees) at 6 MPH (5 knots; 2.6 m/s)
Visibility: 10 or more miles (16+ km)
Ceiling: at least 12,000 feet AGL
Clouds: sky clear below 12,000 feet AGL
Present Weather: no significant weather observed at this time
KRSW 170353Z 05005KT 10SM CLR 14/11 A3028 RMK AO2 SLP250 T01440106

Conditions at: KRSW observed 17 January 2018  02:53 UTC
Temperature: 15.6°C (60°F)
Dewpoint: 10.6°C (51°F) [RH = 72%]
Pressure (altimeter): 30.28 inches Hg (1025.5 mb)
[Sea-level pressure: 1025.0 mb]
Winds: from the ENE (60 degrees) at 7 MPH (6 knots; 3.1 m/s)
Visibility: 10 or more miles (16+ km)
Ceiling: at least 12,000 feet AGL
Clouds: sky clear below 12,000 feet AGL
Present Weather: no significant weather observed at this time
KRSW 170253Z 06006KT 10SM CLR 16/11 A3028 RMK AO2 SLP250 T01560106 53013

Conditions at: KRSW observed 17 January 2018  01:53 UTC
Temperature: 16.7°C (62°F)
Dewpoint: 10.0°C (50°F) [RH = 65%]
Pressure (altimeter): 30.25 inches Hg (1024.5 mb)
[Sea-level pressure: 1024.2 mb]
Winds: from the ENE (70 degrees) at 10 MPH (9 knots; 4.7 m/s)
Visibility: 10 or more miles (16+ km)
Ceiling: at least 12,000 feet AGL
Clouds: sky clear below 12,000 feet AGL
Present Weather: no significant weather observed at this time
KRSW 170153Z 07009KT 10SM CLR 17/10 A3025 RMK AO2 SLP242 T01670100

Conditions at: KRSW observed 17 January 2018  00:53 UTC
Temperature: 17.2°C (63°F)
Dewpoint: 9.4°C (49°F) [RH = 60%]
Pressure (altimeter): 30.25 inches Hg (1024.5 mb)
[Sea-level pressure: 1024.2 mb]
Winds: from the NE (40 degrees) at 7 MPH (6 knots; 3.1 m/s)
Visibility: 10 or more miles (16+ km)
Ceiling: at least 12,000 feet AGL
Clouds: sky clear below 12,000 feet AGL
Present Weather: no significant weather observed at this time
KRSW 170053Z 04006KT 10SM CLR 17/09 A3025 RMK AO2 SLP242 T01720094

Conditions at: KRSW observed 16 January 2018  23:53 UTC
Temperature: 18.3°C (65°F)
Dewpoint: 8.9°C (48°F) [RH = 54%]
Pressure (altimeter): 30.24 inches Hg (1024.1 mb)
[Sea-level pressure: 1023.7 mb]
Winds: from the NE (40 degrees) at 6 MPH (5 knots; 2.6 m/s)
Visibility: 10 or more miles (16+ km)
Ceiling: at least 12,000 feet AGL
Clouds: sky clear below 12,000 feet AGL
Present Weather: no significant weather observed at this time
KRSW 162353Z 04005KT 10SM CLR 18/09 A3024 RMK AO2 SLP237 T01830089 10239 20183 55000

Conditions at: KRSW observed 16 January 2018  22:53 UTC
Temperature: 20.6°C (69°F)
Dewpoint: 8.3°C (47°F) [RH = 45%]
Pressure (altimeter): 30.23 inches Hg (1023.8 mb)
[Sea-level pressure: 1023.4 mb]
Winds: from the NNE (30 degrees) at 6 MPH (5 knots; 2.6 m/s)
Visibility: 10 or more miles (16+ km)
Ceiling: at least 12,000 feet AGL
Clouds: sky clear below 12,000 feet AGL
Present Weather: no significant weather observed at this time
KRSW 162253Z 03005KT 10SM CLR 21/08 A3023 RMK AO2 SLP234 T02060083

Conditions at: KRSW observed 16 January 2018  21:53 UTC
Temperature: 22.2°C (72°F)
Dewpoint: 8.3°C (47°F) [RH = 41%]
Pressure (altimeter): 30.23 inches Hg (1023.8 mb)
[Sea-level pressure: 1023.4 mb]
Winds: from the NNE (30 degrees) at 9 MPH (8 knots; 4.2 m/s)
Visibility: 10 or more miles (16+ km)
Ceiling: at least 12,000 feet AGL
Clouds: scattered clouds at 6000 feet AGL
Present Weather: no significant weather observed at this time
KRSW 162153Z 03008KT 10SM SCT060 22/08 A3023 RMK AO2 SLP234 T02220083

Conditions at: KRSW observed 16 January 2018  20:53 UTC
Temperature: 22.8°C (73°F)
Dewpoint: 8.3°C (47°F) [RH = 39%]
Pressure (altimeter): 30.24 inches Hg (1024.1 mb)
[Sea-level pressure: 1023.7 mb]
Winds: from the NE (50 degrees) at 7 MPH (6 knots; 3.1 m/s)
Visibility: 10 or more miles (16+ km)
Ceiling: at least 12,000 feet AGL
Clouds: few clouds at 6500 feet AGL
Present Weather: no significant weather observed at this time
KRSW 162053Z 05006KT 10SM FEW065 23/08 A3024 RMK AO2 SLP237 T02280083 55016

Conditions at: KRSW observed 16 January 2018  19:53 UTC
Temperature: 23.3°C (74°F)
Dewpoint: 8.9°C (48°F) [RH = 40%]
Pressure (altimeter): 30.23 inches Hg (1023.8 mb)
[Sea-level pressure: 1023.3 mb]
Winds: from the NE (40 degrees) at 10 MPH (9 knots; 4.7 m/s)
gusting to 18 MPH (16 knots; 8.3 m/s)
Visibility: 10 or more miles (16+ km)
Ceiling: at least 12,000 feet AGL
Clouds: few clouds at 6500 feet AGL
Present Weather: no significant weather observed at this time
KRSW 161953Z 04009G16KT 10SM FEW065 23/09 A3023 RMK AO2 SLP233 T02330089

Conditions at: KRSW observed 16 January 2018  18:53 UTC
Temperature: 23.3°C (74°F)
Dewpoint: 9.4°C (49°F) [RH = 41%]
Pressure (altimeter): 30.25 inches Hg (1024.5 mb)
[Sea-level pressure: 1023.9 mb]
Winds: from the NE (50 degrees) at 10 MPH (9 knots; 4.7 m/s)
Visibility: 10 or more miles (16+ km)
Ceiling: at least 12,000 feet AGL
Clouds: few clouds at 5500 feet AGL
Present Weather: no significant weather observed at this time
KRSW 161853Z 05009KT 10SM FEW055 23/09 A3025 RMK AO2 SLP239 T02330094

Conditions at: KRSW observed 16 January 2018  17:53 UTC
Temperature: 22.8°C (73°F)
Dewpoint: 10.0°C (50°F) [RH = 44%]
Pressure (altimeter): 30.29 inches Hg (1025.8 mb)
[Sea-level pressure: 1025.3 mb]
Winds: from the ENE (70 degrees) at 15 MPH (13 knots; 6.8 m/s)
gusting to 20 MPH (17 knots; 8.8 m/s)
Visibility: 10 or more miles (16+ km)
Ceiling: at least 12,000 feet AGL
Clouds: sky clear below 12,000 feet AGL
Present Weather: no significant weather observed at this time
KRSW 161753Z 07013G17KT 10SM CLR 23/10 A3029 RMK AO2 SLP253 T02280100 10233 20100 58020

Conditions at: KRSW observed 16 January 2018  16:53 UTC
Temperature: 22.2°C (72°F)
Dewpoint: 11.1°C (52°F) [RH = 49%]
Pressure (altimeter): 30.31 inches Hg (1026.5 mb)
[Sea-level pressure: 1026.2 mb]
Winds: from the E (80 degrees) at 15 MPH (13 knots; 6.8 m/s)
Visibility: 10 or more miles (16+ km)
Ceiling: at least 12,000 feet AGL
Clouds: sky clear below 12,000 feet AGL
Present Weather: no significant weather observed at this time
KRSW 161653Z 08013KT 10SM CLR 22/11 A3031 RMK AO2 SLP262 T02220111

Conditions at: KRSW observed 16 January 2018  15:53 UTC
Temperature: 20.0°C (68°F)
Dewpoint: 11.7°C (53°F) [RH = 59%]
Pressure (altimeter): 30.34 inches Hg (1027.5 mb)
[Sea-level pressure: 1027.1 mb]
Winds: from the E (90 degrees) at 14 MPH (12 knots; 6.2 m/s)
Visibility: 10 or more miles (16+ km)
Ceiling: at least 12,000 feet AGL
Clouds: sky clear below 12,000 feet AGL
Present Weather: no significant weather observed at this time
KRSW 161553Z 09012KT 10SM CLR 20/12 A3034 RMK AO2 SLP271 T02000117

Conditions at: KRSW observed 16 January 2018  14:53 UTC
Temperature: 17.8°C (64°F)
Dewpoint: 11.7°C (53°F) [RH = 67%]
Pressure (altimeter): 30.35 inches Hg (1027.9 mb)
[Sea-level pressure: 1027.3 mb]
Winds: from the NE (50 degrees) at 9 MPH (8 knots; 4.2 m/s)
Visibility: 10 or more miles (16+ km)
Ceiling: at least 12,000 feet AGL
Clouds: sky clear below 12,000 feet AGL
Present Weather: no significant weather observed at this time
KRSW 161453Z 05008KT 10SM CLR 18/12 A3035 RMK AO2 SLP273 T01780117 51011

Conditions at: KRSW observed 16 January 2018  13:53 UTC
Temperature: 13.3°C (56°F)
Dewpoint: 11.1°C (52°F) [RH = 87%]
Pressure (altimeter): 30.34 inches Hg (1027.5 mb)
[Sea-level pressure: 1027.2 mb]
Winds: from the NE (40 degrees) at 7 MPH (6 knots; 3.1 m/s)
Visibility: 10 or more miles (16+ km)
Ceiling: at least 12,000 feet AGL
Clouds: sky clear below 12,000 feet AGL
Present Weather: no significant weather observed at this time
KRSW 161353Z 04006KT 10SM CLR 13/11 A3034 RMK AO2 SLP272 T01330111

Conditions at: KRSW observed 16 January 2018  12:53 UTC
Temperature: 10.6°C (51°F)
Dewpoint: 10.0°C (50°F) [RH = 96%]
Pressure (altimeter): 30.33 inches Hg (1027.2 mb)
[Sea-level pressure: 1026.7 mb]
Winds: from the NNE (30 degrees) at 6 MPH (5 knots; 2.6 m/s)
Visibility: 10 or more miles (16+ km)
Ceiling: at least 12,000 feet AGL
Clouds: sky clear below 12,000 feet AGL
Present Weather: no significant weather observed at this time
KRSW 161253Z 03005KT 10SM CLR 11/10 A3033 RMK AO2 SLP267 T01060100

Conditions at: KRSW observed 16 January 2018  11:53 UTC
Temperature: 10.0°C (50°F)
Dewpoint: 9.4°C (49°F) [RH = 96%]
Pressure (altimeter): 30.31 inches Hg (1026.5 mb)
[Sea-level pressure: 1026.3 mb]
Winds: from the NNE (20 degrees) at 6 MPH (5 knots; 2.6 m/s)
Visibility: 10 or more miles (16+ km)
Ceiling: at least 12,000 feet AGL
Clouds: sky clear below 12,000 feet AGL
Present Weather: no significant weather observed at this time
KRSW 161153Z 02005KT 10SM CLR 10/09 A3031 RMK AO2 SLP263 T01000094 10117 20100 53013

Conditions at: KRSW observed 16 January 2018  10:53 UTC
Temperature: 10.0°C (50°F)
Dewpoint: 9.4°C (49°F) [RH = 96%]
Pressure (altimeter): 30.30 inches Hg (1026.2 mb)
[Sea-level pressure: 1025.7 mb]
Winds: from the NNE (30 degrees) at 5 MPH (4 knots; 2.1 m/s)
Visibility: 10 or more miles (16+ km)
Ceiling: at least 12,000 feet AGL
Clouds: sky clear below 12,000 feet AGL
Present Weather: no significant weather observed at this time
KRSW 161053Z 03004KT 10SM CLR 10/09 A3030 RMK AO2 SLP257 T01000094

Conditions at: KRSW observed 16 January 2018  09:53 UTC
Temperature: 10.6°C (51°F)
Dewpoint: 9.4°C (49°F) [RH = 92%]
Pressure (altimeter): 30.28 inches Hg (1025.5 mb)
[Sea-level pressure: 1025.3 mb]
Winds: from the NE (50 degrees) at 5 MPH (4 knots; 2.1 m/s)
Visibility: 10 or more miles (16+ km)
Ceiling: at least 12,000 feet AGL
Clouds: sky clear below 12,000 feet AGL
Present Weather: automated observation with no human augmentation;
there may or may not be significant weather present at this time
KRSW 160953Z AUTO 05004KT 10SM CLR 11/09 A3028 RMK AO2 SLP253 T01060094

Conditions at: KRSW observed 16 January 2018  08:53 UTC
Temperature: 10.6°C (51°F)
Dewpoint: 9.4°C (49°F) [RH = 92%]
Pressure (altimeter): 30.28 inches Hg (1025.5 mb)
[Sea-level pressure: 1024.9 mb]
Winds: from the NNE (30 degrees) at 8 MPH (7 knots; 3.6 m/s)
Visibility: 10 or more miles (16+ km)
Ceiling: at least 12,000 feet AGL
Clouds: sky clear below 12,000 feet AGL
Present Weather: automated observation with no human augmentation;
there may or may not be significant weather present at this time
KRSW 160853Z AUTO 03007KT 10SM CLR 11/09 A3028 RMK AO2 SLP249 T01060094 55006

Conditions at: KRSW observed 16 January 2018  07:53 UTC
Temperature: 11.1°C (52°F)
Dewpoint: 9.4°C (49°F) [RH = 89%]
Pressure (altimeter): 30.27 inches Hg (1025.1 mb)
[Sea-level pressure: 1024.8 mb]
Winds: from the NE (40 degrees) at 9 MPH (8 knots; 4.2 m/s)
Visibility: 10 or more miles (16+ km)
Ceiling: at least 12,000 feet AGL
Clouds: sky clear below 12,000 feet AGL
Present Weather: automated observation with no human augmentation;
there may or may not be significant weather present at this time
KRSW 160753Z AUTO 04008KT 10SM CLR 11/09 A3027 RMK AO2 SLP248 T01110094

Conditions at: KRSW observed 16 January 2018  06:53 UTC
Temperature: 11.1°C (52°F)
Dewpoint: 9.4°C (49°F) [RH = 89%]
Pressure (altimeter): 30.29 inches Hg (1025.8 mb)
[Sea-level pressure: 1025.5 mb]
Winds: from the NE (40 degrees) at 9 MPH (8 knots; 4.2 m/s)
Visibility: 10 or more miles (16+ km)
Ceiling: at least 12,000 feet AGL
Clouds: sky clear below 12,000 feet AGL
Present Weather: automated observation with no human augmentation;
there may or may not be significant weather present at this time
KRSW 160653Z AUTO 04008KT 10SM CLR 11/09 A3029 RMK AO2 SLP255 T01110094

Conditions at: KRSW observed 16 January 2018  05:53 UTC
Temperature: 11.7°C (53°F)
Dewpoint: 8.9°C (48°F) [RH = 83%]
Pressure (altimeter): 30.29 inches Hg (1025.8 mb)
[Sea-level pressure: 1025.6 mb]
Winds: from the NNE (30 degrees) at 7 MPH (6 knots; 3.1 m/s)
Visibility: 10 or more miles (16+ km)
Ceiling: at least 12,000 feet AGL
Clouds: sky clear below 12,000 feet AGL
Present Weather: automated observation with no human augmentation;
there may or may not be significant weather present at this time
KRSW 160553Z AUTO 03006KT 10SM CLR 12/09 A3029 RMK AO2 SLP256 T01170089 10183 20117 58006

Conditions at: KRSW observed 16 January 2018  04:53 UTC
Temperature: 12.8°C (55°F)
Dewpoint: 8.9°C (48°F) [RH = 77%]
Pressure (altimeter): 30.30 inches Hg (1026.2 mb)
[Sea-level pressure: 1025.9 mb]
Winds: from the NNE (30 degrees) at 9 MPH (8 knots; 4.2 m/s)
Visibility: 10 or more miles (16+ km)
Ceiling: at least 12,000 feet AGL
Clouds: few clouds at 6500 feet AGL
Present Weather: automated observation with no human augmentation;
there may or may not be significant weather present at this time
KRSW 160453Z AUTO 03008KT 10SM FEW065 13/09 A3030 RMK AO2 SLP259 T01280089 402280078

Conditions at: KRSW observed 16 January 2018  03:53 UTC
Temperature: 14.4°C (58°F)
Dewpoint: 9.4°C (49°F) [RH = 72%]
Pressure (altimeter): 30.32 inches Hg (1026.8 mb)
[Sea-level pressure: 1026.3 mb]
Winds: from the NE (50 degrees) at 16 MPH (14 knots; 7.3 m/s)
gusting to 20 MPH (17 knots; 8.8 m/s)
Visibility: 10 or more miles (16+ km)
Ceiling: 4000 feet AGL
Clouds: overcast cloud deck at 4000 feet AGL
Present Weather: no significant weather observed at this time
KRSW 160353Z 05014G17KT 10SM OVC040 14/09 A3032 RMK AO2 SLP263 T01440094

Conditions at: KRSW observed 16 January 2018  02:53 UTC
Temperature: 15.0°C (59°F)
Dewpoint: 9.4°C (49°F) [RH = 69%]
Pressure (altimeter): 30.31 inches Hg (1026.5 mb)
[Sea-level pressure: 1026.1 mb]
Winds: from the NE (40 degrees) at 10 MPH (9 knots; 4.7 m/s)
Visibility: 10 or more miles (16+ km)
Ceiling: 6500 feet AGL
Clouds: few clouds at 3500 feet AGL
broken clouds at 6500 feet AGL
Present Weather: no significant weather observed at this time
KRSW 160253Z 04009KT 10SM FEW035 BKN065 15/09 A3031 RMK AO2 SLP261 T01500094 51014

Conditions at: KRSW observed 16 January 2018  01:53 UTC
Temperature: 15.6°C (60°F)
Dewpoint: 8.9°C (48°F) [RH = 64%]
Pressure (altimeter): 30.30 inches Hg (1026.2 mb)
[Sea-level pressure: 1025.7 mb]
Winds: from the NE (40 degrees) at 10 MPH (9 knots; 4.7 m/s)
Visibility: 10 or more miles (16+ km)
Ceiling: at least 12,000 feet AGL
Clouds: scattered clouds at 4700 feet AGL
Present Weather: no significant weather observed at this time
KRSW 160153Z 04009KT 10SM SCT047 16/09 A3030 RMK AO2 SLP257 T01560089

Conditions at: KRSW observed 16 January 2018  00:53 UTC
Temperature: 17.2°C (63°F)
Dewpoint: 11.1°C (52°F) [RH = 67%]
Pressure (altimeter): 30.29 inches Hg (1025.8 mb)
[Sea-level pressure: 1025.3 mb]
Winds: from the NE (50 degrees) at 17 MPH (15 knots; 7.8 m/s)
gusting to 23 MPH (20 knots; 10.4 m/s)
Visibility: 10 or more miles (16+ km)
Ceiling: 4900 feet AGL
Clouds: scattered clouds at 3900 feet AGL
broken clouds at 4900 feet AGL
overcast cloud deck at 5500 feet AGL
Present Weather: no significant weather observed at this time
KRSW 160053Z 05015G20KT 10SM SCT039 BKN049 OVC055 17/11 A3029 RMK AO2 SLP253 T01720111

Conditions at: KRSW observed 15 January 2018  23:53 UTC
Temperature: 18.3°C (65°F)
Dewpoint: 12.2°C (54°F) [RH = 68%]
Pressure (altimeter): 30.27 inches Hg (1025.1 mb)
[Sea-level pressure: 1024.7 mb]
Winds: from the NE (50 degrees) at 14 MPH (12 knots; 6.2 m/s)
Visibility: 10 or more miles (16+ km)
Ceiling: 5500 feet AGL
Clouds: few clouds at 4100 feet AGL
broken clouds at 5500 feet AGL
Present Weather: no significant weather observed at this time
KRSW 152353Z 05012KT 10SM FEW041 BKN055 18/12 A3027 RMK AO2 SLP247 T01830122 10228 20183 53015

Conditions at: KRSW observed 15 January 2018  22:53 UTC
Temperature: 19.4°C (67°F)
Dewpoint: 12.8°C (55°F) [RH = 66%]
Pressure (altimeter): 30.25 inches Hg (1024.5 mb)
[Sea-level pressure: 1023.9 mb]
Winds: from the NE (50 degrees) at 15 MPH (13 knots; 6.8 m/s)
gusting to 22 MPH (19 knots; 9.9 m/s)
Visibility: 10 or more miles (16+ km)
Ceiling: 4100 feet AGL
Clouds: broken clouds at 4100 feet AGL
broken clouds at 4900 feet AGL
Present Weather: automated observation with no human augmentation;
there may or may not be significant weather present at this time
KRSW 152253Z AUTO 05013G19KT 10SM BKN041 BKN049 19/13 A3025 RMK AO2 SLP239 T01940128